Time;durP1;ratioP1;P1;durP2;ratioP2;P2;SDS_P1;SDS_P2;PMS_P1;PMS_P2;Temp;Humidity;BMP_temperature;BMP_pressure;BME280_temperature;BME280_humidity;BME280_pressure;Samples;Min_cycle;Max_cycle;Signal;HPM_P1;HPM_P2
2022/10/03 00:01:43;;;;;;;8.50;1.88;;;12.20;78.70;;;;;;9173277;19;20137;-63
2022/10/03 00:05:01;;;;;;;18.48;3.35;;;12.10;78.70;;;;;;9172158;19;20419;-63
2022/10/03 00:08:14;;;;;;;15.48;2.10;;;12.20;78.70;;;;;;9171754;19;20018;-63
2022/10/03 00:11:31;;;;;;;11.27;2.47;;;12.10;78.60;;;;;;9170357;19;20129;-61
2022/10/03 00:14:44;;;;;;;17.70;3.40;;;12.10;78.60;;;;;;9171097;19;20409;-62
2022/10/03 00:17:55;;;;;;;16.00;2.30;;;12.10;78.60;;;;;;9171744;19;20086;-64
2022/10/03 00:21:13;;;;;;;5.80;1.92;;;12.10;78.60;;;;;;9171169;19;20510;-60
2022/10/03 00:24:26;;;;;;;9.85;2.30;;;12.00;78.70;;;;;;9172607;19;20574;-65
2022/10/03 00:27:38;;;;;;;14.55;2.53;;;12.00;78.70;;;;;;9170528;19;20476;-61
2022/10/03 00:30:55;;;;;;;13.65;1.80;;;12.00;78.70;;;;;;9172228;19;20014;-60
2022/10/03 00:34:07;;;;;;;16.33;2.28;;;12.00;78.80;;;;;;9167654;19;20022;-61
2022/10/03 00:37:22;;;;;;;10.65;2.45;;;11.90;78.80;;;;;;9170376;19;20086;-61
2022/10/03 00:41:05;;;;;;;9.68;2.13;;;11.90;78.80;;;;;;9172122;19;20023;-62
2022/10/03 00:44:39;;;;;;;7.32;2.03;;;11.90;78.90;;;;;;9168740;19;20078;-65
2022/10/03 00:48:09;;;;;;;18.85;2.80;;;11.90;78.90;;;;;;9169968;19;20018;-64
2022/10/03 00:51:25;;;;;;;10.38;2.42;;;11.80;78.80;;;;;;9168284;19;20019;-62
2022/10/03 00:54:45;;;;;;;7.55;2.08;;;11.80;78.90;;;;;;9168539;19;20394;-64
2022/10/03 00:58:05;;;;;;;9.50;2.03;;;11.70;78.80;;;;;;9165398;19;20819;-61
2022/10/03 01:01:26;;;;;;;14.05;2.30;;;11.70;79.00;;;;;;9170219;19;20027;-62
2022/10/03 01:04:46;;;;;;;14.35;2.75;;;11.70;79.00;;;;;;9169523;19;22236;-61
2022/10/03 01:08:05;;;;;;;12.25;2.20;;;11.70;79.10;;;;;;9168904;19;20026;-61
2022/10/03 01:11:19;;;;;;;19.13;2.47;;;11.60;79.10;;;;;;9168282;19;20121;-62
2022/10/03 01:14:26;;;;;;;;;;;11.60;79.00;;;;;;9168468;19;20006;-64
2022/10/03 01:17:46;;;;;;;16.08;1.75;;;11.60;79.00;;;;;;9168731;19;20287;-63
2022/10/03 01:21:00;;;;;;;7.30;2.03;;;11.50;78.90;;;;;;9170920;19;20018;-62
2022/10/03 01:24:30;;;;;;;18.15;2.03;;;11.50;78.90;;;;;;9176955;19;20014;-61
2022/10/03 01:31:09;;;;;;;10.35;2.08;;;11.40;79.00;;;;;;9175622;19;20438;-61
2022/10/03 01:34:19;;;;;;;14.60;2.97;;;11.40;79.00;;;;;;9177007;19;20010;-64
2022/10/03 01:37:30;;;;;;;10.30;2.08;;;11.40;79.10;;;;;;9176768;19;20086;-63
2022/10/03 01:40:40;;;;;;;11.20;2.60;;;11.30;79.10;;;;;;9177246;19;20953;-63
2022/10/03 01:43:48;;;;;;;11.98;2.22;;;11.30;79.10;;;;;;9176830;19;20090;-64
2022/10/03 01:47:05;;;;;;;10.73;2.28;;;11.30;79.20;;;;;;9176720;19;20144;-61
2022/10/03 01:50:20;;;;;;;13.20;2.42;;;11.20;79.20;;;;;;9179330;19;20526;-62
2022/10/03 01:53:34;;;;;;;15.85;3.05;;;11.20;79.30;;;;;;9173338;19;20011;-63
2022/10/03 01:56:43;;;;;;;9.18;2.20;;;11.20;79.30;;;;;;9171046;19;20015;-60
2022/10/03 01:59:55;;;;;;;9.68;2.03;;;11.10;79.30;;;;;;9176060;19;20023;-61
2022/10/03 02:03:12;;;;;;;13.98;1.98;;;11.10;79.40;;;;;;9175843;19;20018;-61
2022/10/03 02:06:24;;;;;;;10.93;2.65;;;11.10;79.40;;;;;;9176251;19;20014;-61
2022/10/03 02:09:37;;;;;;;11.23;2.00;;;11.00;79.30;;;;;;9174035;19;20018;-62
2022/10/03 02:12:46;;;;;;;12.18;2.47;;;11.00;79.40;;;;;;9173279;19;20014;-61
2022/10/03 02:16:03;;;;;;;14.93;2.33;;;11.00;79.40;;;;;;9177137;19;20021;-61
2022/10/03 02:19:20;;;;;;;8.23;2.20;;;11.00;79.50;;;;;;9176667;19;20020;-60
2022/10/03 02:22:33;;;;;;;13.73;2.20;;;11.00;79.50;;;;;;9183148;19;20439;-64
2022/10/03 02:25:54;;;;;;;14.30;2.85;;;10.90;79.50;;;;;;9176995;19;20014;-60
2022/10/03 02:29:11;;;;;;;9.77;2.17;;;10.90;79.60;;;;;;9182034;19;20015;-62
2022/10/03 02:32:34;;;;;;;10.70;1.90;;;10.90;79.50;;;;;;9181054;19;20098;-60
2022/10/03 02:36:07;;;;;;;11.05;1.90;;;10.80;79.60;;;;;;9182358;19;20023;-61
2022/10/03 02:39:45;;;;;;;9.70;1.92;;;10.80;79.60;;;;;;9181830;19;20018;-64
2022/10/03 02:43:14;;;;;;;9.73;2.30;;;10.80;79.70;;;;;;9183722;19;20535;-60
2022/10/03 02:46:57;;;;;;;10.65;2.08;;;10.80;79.70;;;;;;9184215;19;20394;-62
2022/10/03 02:50:28;;;;;;;7.82;2.05;;;10.70;79.80;;;;;;9182214;19;20363;-61
2022/10/03 02:53:58;;;;;;;12.15;2.20;;;10.70;79.70;;;;;;9180758;19;20014;-62
2022/10/03 02:57:42;;;;;;;10.82;1.77;;;10.70;79.80;;;;;;9178723;19;20014;-60
2022/10/03 03:01:31;;;;;;;13.18;1.95;;;10.70;79.80;;;;;;9183779;19;20078;-63
2022/10/03 03:05:04;;;;;;;8.50;1.95;;;10.60;79.80;;;;;;9180315;19;20015;-63
2022/10/03 03:08:37;;;;;;;15.25;2.95;;;10.60;79.80;;;;;;9179022;19;20107;-61
2022/10/03 03:12:11;;;;;;;12.32;2.45;;;10.60;79.80;;;;;;9182488;19;20017;-61
2022/10/03 03:15:45;;;;;;;6.63;1.90;;;10.50;79.80;;;;;;9178885;19;20025;-61
2022/10/03 03:19:10;;;;;;;5.97;1.70;;;10.50;79.80;;;;;;9176616;19;20074;-60
2022/10/03 03:22:31;;;;;;;9.20;1.67;;;10.50;79.90;;;;;;9174738;19;20021;-60
2022/10/03 03:25:59;;;;;;;5.80;1.55;;;10.50;79.90;;;;;;9174780;19;20019;-61
2022/10/03 03:29:12;;;;;;;9.82;1.85;;;10.50;80.00;;;;;;9178993;19;20018;-65
2022/10/03 03:32:27;;;;;;;10.50;2.10;;;10.40;79.90;;;;;;9179642;19;20048;-60
2022/10/03 03:35:44;;;;;;;13.48;2.05;;;10.40;80.00;;;;;;9181016;19;20074;-62
2022/10/03 03:38:58;;;;;;;8.07;1.95;;;10.40;80.10;;;;;;9182558;19;20077;-63
2022/10/03 03:42:13;;;;;;;9.90;2.40;;;10.40;80.10;;;;;;9182612;19;20010;-60
2022/10/03 03:45:31;;;;;;;12.00;2.13;;;10.40;80.10;;;;;;9180937;19;20022;-61
2022/10/03 03:49:01;;;;;;;7.88;2.20;;;10.30;80.10;;;;;;9182049;19;20021;-60
2022/10/03 03:52:29;;;;;;;6.57;1.20;;;10.30;80.10;;;;;;9177872;19;20047;-60
2022/10/03 03:56:01;;;;;;;9.30;2.40;;;10.30;80.10;;;;;;9174512;19;20018;-61
2022/10/03 03:59:18;;;;;;;11.88;1.90;;;10.30;80.20;;;;;;9168274;19;20033;-61
2022/10/03 04:02:37;;;;;;;12.55;1.80;;;10.20;80.10;;;;;;9174568;19;20030;-64
2022/10/03 04:06:00;;;;;;;9.23;2.50;;;10.20;80.10;;;;;;9170512;19;20467;-61
2022/10/03 04:09:37;;;;;;;6.50;1.60;;;10.20;80.20;;;;;;9170529;19;20066;-61
2022/10/03 04:13:08;;;;;;;7.60;1.98;;;10.20;80.30;;;;;;9168697;19;21562;-63
2022/10/03 04:20:10;;;;;;;8.20;1.90;;;10.20;80.30;;;;;;9173793;19;20010;-61
2022/10/03 04:23:30;;;;;;;7.85;1.70;;;10.10;80.20;;;;;;9174695;19;20025;-61
2022/10/03 04:26:51;;;;;;;6.60;1.95;;;10.10;80.30;;;;;;9173113;19;20051;-62
2022/10/03 04:30:05;;;;;;;12.50;2.38;;;10.10;80.30;;;;;;9176220;19;20025;-62
2022/10/03 04:33:24;;;;;;;10.68;2.75;;;10.00;80.30;;;;;;9170614;19;20014;-60
2022/10/03 04:37:09;;;;;;;10.68;2.05;;;10.00;80.30;;;;;;9172713;19;20104;-64
2022/10/03 04:40:32;;;;;;;13.18;2.80;;;10.00;80.40;;;;;;9170982;19;20040;-60
2022/10/03 04:43:44;;;;;;;11.15;2.40;;;10.00;80.40;;;;;;9171271;19;20014;-60
2022/10/03 04:46:56;;;;;;;7.38;1.60;;;10.00;80.40;;;;;;9172961;19;20479;-60
2022/10/03 04:50:09;;;;;;;12.00;2.33;;;10.00;80.40;;;;;;9169467;19;20024;-60
2022/10/03 04:53:30;;;;;;;10.98;1.98;;;9.90;80.40;;;;;;9170530;19;20284;-61
2022/10/03 04:56:51;;;;;;;7.82;2.03;;;9.90;80.50;;;;;;9167720;19;20019;-63
2022/10/03 05:00:07;;;;;;;11.95;2.35;;;9.90;80.50;;;;;;9171847;19;20610;-61
2022/10/03 05:03:19;;;;;;;4.57;1.27;;;9.80;80.40;;;;;;9170787;19;20070;-61
2022/10/03 05:06:32;;;;;;;10.40;1.52;;;9.80;80.40;;;;;;9171897;19;20779;-63
2022/10/03 05:09:48;;;;;;;7.72;1.80;;;9.80;80.50;;;;;;9167550;19;20019;-61
2022/10/03 05:12:58;;;;;;;7.22;1.50;;;9.80;80.50;;;;;;9167410;19;20011;-62
2022/10/03 05:16:10;;;;;;;10.25;1.90;;;9.80;80.60;;;;;;9170564;19;20098;-60
2022/10/03 05:20:04;;;;;;;10.57;2.10;;;9.70;80.50;;;;;;9169459;19;20121;-63
2022/10/03 05:23:20;;;;;;;8.02;1.80;;;9.70;80.70;;;;;;9170618;19;20015;-61
2022/10/03 05:26:29;;;;;;;9.95;1.83;;;9.70;80.50;;;;;;9169935;19;20468;-64
2022/10/03 05:29:58;;;;;;;5.20;1.63;;;9.70;80.50;;;;;;9168384;19;20019;-64
2022/10/03 05:33:16;;;;;;;4.18;1.80;;;9.60;80.50;;;;;;9166570;19;20340;-62
2022/10/03 05:36:30;;;;;;;5.85;1.27;;;9.60;80.60;;;;;;9170670;19;20397;-65
2022/10/03 05:39:43;;;;;;;5.03;1.63;;;9.60;80.60;;;;;;9167457;19;20018;-61
2022/10/03 05:43:05;;;;;;;3.83;1.87;;;9.60;80.60;;;;;;9170577;19;20014;-60
2022/10/03 05:46:21;;;;;;;6.18;1.85;;;9.60;80.70;;;;;;9167639;19;20680;-61
2022/10/03 05:49:45;;;;;;;6.38;2.95;;;9.50;80.60;;;;;;9163179;19;20019;-62
2022/10/03 05:53:03;;;;;;;4.60;1.63;;;9.50;80.70;;;;;;9165760;19;20018;-59
2022/10/03 05:56:13;;;;;;;6.82;1.67;;;9.50;80.70;;;;;;9166092;19;20041;-64
2022/10/03 05:59:44;;;;;;;5.88;2.42;;;9.40;80.60;;;;;;9163964;19;20082;-63
2022/10/03 06:03:15;;;;;;;5.78;1.83;;;9.50;80.80;;;;;;9169847;19;20019;-61
2022/10/03 06:06:34;;;;;;;3.38;1.63;;;9.40;80.80;;;;;;9170445;19;20090;-61
2022/10/03 06:10:13;;;;;;;2.97;1.40;;;9.40;80.70;;;;;;9175454;19;20047;-62
2022/10/03 06:13:25;;;;;;;9.05;2.08;;;9.40;80.80;;;;;;9166971;19;20033;-63
2022/10/03 06:16:38;;;;;;;5.43;2.13;;;9.40;80.80;;;;;;9170697;19;20602;-64
2022/10/03 06:19:50;;;;;;;8.32;1.92;;;9.30;80.80;;;;;;9173906;19;20053;-61
2022/10/03 06:23:22;;;;;;;7.90;1.70;;;9.30;80.80;;;;;;9170313;19;20347;-61
2022/10/03 06:26:44;;;;;;;5.57;1.40;;;9.30;80.90;;;;;;9170440;19;20014;-64
2022/10/03 06:30:05;;;;;;;8.02;1.80;;;9.30;80.90;;;;;;9170361;19;20380;-63
2022/10/03 06:33:49;;;;;;;4.35;1.70;;;9.30;81.00;;;;;;9166377;19;20015;-62
2022/10/03 06:37:30;;;;;;;7.53;1.98;;;9.30;81.10;;;;;;9175188;19;20018;-63
2022/10/03 06:41:14;;;;;;;6.70;1.55;;;9.40;81.10;;;;;;9175179;19;20496;-62
2022/10/03 06:44:32;;;;;;;4.72;1.77;;;9.30;81.10;;;;;;9183786;19;20033;-62
2022/10/03 06:47:59;;;;;;;5.07;1.42;;;9.40;81.10;;;;;;9182462;19;20031;-61
2022/10/03 06:51:42;;;;;;;4.00;1.50;;;9.40;81.20;;;;;;9184435;19;20481;-62
2022/10/03 06:55:14;;;;;;;3.20;1.60;;;9.40;81.30;;;;;;9181065;19;20006;-62
2022/10/03 06:58:47;;;;;;;9.27;1.92;;;9.40;81.20;;;;;;9179818;19;20019;-61
2022/10/03 07:02:21;;;;;;;8.80;1.77;;;9.50;81.40;;;;;;9183811;19;20030;-63
2022/10/03 07:05:50;;;;;;;8.57;2.40;;;9.50;81.40;;;;;;9184036;19;20059;-61
2022/10/03 07:09:27;;;;;;;6.18;2.58;;;9.50;81.40;;;;;;9181351;19;20022;-62
2022/10/03 07:12:54;;;;;;;12.35;2.40;;;9.60;81.60;;;;;;9181961;19;20026;-64
2022/10/03 07:16:29;;;;;;;13.45;2.35;;;9.60;81.60;;;;;;9175860;19;20014;-61
2022/10/03 07:19:54;;;;;;;19.60;3.33;;;9.70;81.70;;;;;;9181711;19;20019;-61
2022/10/03 07:23:29;;;;;;;10.93;3.30;;;9.80;81.80;;;;;;9182868;19;20018;-61
2022/10/03 07:27:07;;;;;;;21.20;3.42;;;9.90;82.00;;;;;;9180786;19;20387;-63
2022/10/03 07:30:17;;;;;;;16.27;3.40;;;9.90;82.00;;;;;;9180694;19;20014;-64
2022/10/03 07:33:50;;;;;;;13.18;4.57;;;10.10;82.10;;;;;;9180538;19;20025;-63
2022/10/03 07:41:23;;;;;;;26.63;4.50;;;10.40;82.60;;;;;;9173261;19;20086;-63
2022/10/03 07:44:56;;;;;;;22.15;6.28;;;10.60;82.70;;;;;;9170881;19;20501;-62
2022/10/03 07:48:38;;;;;;;25.90;6.15;;;10.80;82.90;;;;;;9171229;19;20011;-61
2022/10/03 07:52:00;;;;;;;20.77;6.72;;;11.00;83.00;;;;;;9174122;19;20022;-64
2022/10/03 07:55:26;;;;;;;22.00;6.68;;;11.30;83.00;;;;;;9171051;19;20583;-62
2022/10/03 07:58:53;;;;;;;28.75;6.82;;;11.50;83.30;;;;;;9176300;19;20010;-62
2022/10/03 08:02:09;;;;;;;22.55;6.72;;;11.80;83.30;;;;;;9181938;19;20028;-61
2022/10/03 08:05:24;;;;;;;26.88;6.50;;;12.00;83.30;;;;;;9180754;19;20399;-61
2022/10/03 08:09:06;;;;;;;23.55;7.28;;;12.20;83.40;;;;;;9181020;19;20026;-61
2022/10/03 08:12:33;;;;;;;22.58;5.53;;;12.50;83.70;;;;;;9182291;19;20023;-63
2022/10/03 08:15:53;;;;;;;17.98;4.45;;;12.70;83.60;;;;;;9179329;19;20078;-61
2022/10/03 08:19:29;;;;;;;14.18;3.45;;;13.00;83.50;;;;;;9181975;19;20014;-64
2022/10/03 08:22:46;;;;;;;16.95;3.55;;;13.20;83.60;;;;;;9180398;19;20074;-66
2022/10/03 08:26:05;;;;;;;21.23;3.72;;;13.40;83.50;;;;;;9181840;19;20015;-63
2022/10/03 08:29:37;;;;;;;20.60;4.07;;;13.70;83.50;;;;;;9175694;19;20438;-63
2022/10/03 08:32:57;;;;;;;16.30;3.83;;;14.00;83.60;;;;;;9170598;19;20052;-64
2022/10/03 08:36:52;;;;;;;12.52;2.80;;;14.20;83.40;;;;;;9174396;19;20015;-62
2022/10/03 08:40:21;;;;;;;10.55;2.20;;;14.50;83.40;;;;;;9175785;19;20026;-62
2022/10/03 08:44:03;;;;;;;17.77;2.88;;;14.80;83.00;;;;;;9180342;19;20010;-63
2022/10/03 08:47:59;;;;;;;11.77;2.35;;;15.00;83.00;;;;;;9176453;19;20022;-63
2022/10/03 08:51:36;;;;;;;23.35;2.40;;;15.30;82.80;;;;;;9179653;19;20083;-62
2022/10/03 08:55:18;;;;;;;16.50;3.08;;;15.50;82.50;;;;;;9175821;19;20114;-62
2022/10/03 08:58:46;;;;;;;5.95;2.13;;;15.80;82.30;;;;;;9174003;19;20010;-63
2022/10/03 09:02:27;;;;;;;11.27;1.95;;;16.00;82.00;;;;;;9179574;19;20051;-65
2022/10/03 09:06:10;;;;;;;16.92;2.10;;;16.20;81.80;;;;;;9180043;19;20027;-63
2022/10/03 09:09:39;;;;;;;9.82;2.00;;;16.40;81.50;;;;;;9174532;19;20077;-62
2022/10/03 09:13:12;;;;;;;10.95;1.98;;;16.60;81.30;;;;;;9177604;19;20011;-63
2022/10/03 09:16:44;;;;;;;12.23;2.60;;;16.80;81.20;;;;;;9179062;19;20015;-63
2022/10/03 09:20:34;;;;;;;10.02;1.70;;;17.00;81.00;;;;;;9179351;19;20018;-65
2022/10/03 09:24:03;;;;;;;13.32;1.95;;;17.20;80.90;;;;;;9177362;19;20070;-64
2022/10/03 09:27:43;;;;;;;13.82;2.75;;;17.30;80.80;;;;;;9177088;19;20418;-63
2022/10/03 09:31:02;;;;;;;6.22;1.27;;;17.50;80.60;;;;;;9175111;19;20010;-65
2022/10/03 09:34:37;;;;;;;6.68;1.33;;;17.70;80.40;;;;;;9175656;19;20015;-64
2022/10/03 09:38:09;;;;;;;11.50;1.73;;;17.90;80.10;;;;;;9179352;19;20329;-65
2022/10/03 09:41:39;;;;;;;11.88;1.73;;;18.10;80.00;;;;;;9177761;19;20060;-67
2022/10/03 09:45:23;;;;;;;8.48;1.52;;;18.30;79.60;;;;;;9186636;19;20006;-65
2022/10/03 09:49:12;;;;;;;12.35;1.67;;;18.50;79.40;;;;;;9182383;19;20022;-66
2022/10/03 09:52:31;;;;;;;6.45;1.38;;;18.70;79.10;;;;;;9186723;19;20094;-65
2022/10/03 09:55:52;;;;;;;10.30;1.55;;;18.90;78.90;;;;;;9185056;19;20023;-66
2022/10/03 09:59:19;;;;;;;7.43;1.77;;;19.00;78.60;;;;;;9179469;19;20010;-65
2022/10/03 10:02:52;;;;;;;16.10;2.63;;;19.10;78.10;;;;;;9186017;19;20018;-66
2022/10/03 10:06:17;;;;;;;11.38;1.27;;;19.30;77.70;;;;;;9186584;19;20006;-65
2022/10/03 10:09:51;;;;;;;9.63;1.48;;;19.30;77.50;;;;;;9181315;19;20041;-65
2022/10/03 10:13:17;;;;;;;4.28;0.88;;;19.40;77.20;;;;;;9183253;19;20018;-66
2022/10/03 10:16:49;;;;;;;9.30;1.30;;;19.50;77.10;;;;;;9183960;19;20014;-66
2022/10/03 10:20:06;;;;;;;8.05;1.38;;;19.50;76.80;;;;;;9186640;19;20014;-66
2022/10/03 10:23:32;;;;;;;8.82;1.00;;;19.50;76.90;;;;;;9185218;19;20014;-66
2022/10/03 10:27:00;;;;;;;14.75;1.83;;;19.60;76.40;;;;;;9183956;19;20483;-66
2022/10/03 10:30:15;;;;;;;6.90;1.52;;;19.60;76.20;;;;;;9184894;19;20027;-66
2022/10/03 10:33:49;;;;;;;9.55;1.40;;;19.70;76.30;;;;;;9183224;19;20426;-65
2022/10/03 10:37:31;;;;;;;8.60;1.70;;;19.70;75.90;;;;;;9183014;19;20098;-67
2022/10/03 10:41:31;;;;;;;10.27;1.70;;;19.80;75.60;;;;;;9184962;19;20019;-66
2022/10/03 10:45:01;;;;;;;5.93;1.85;;;19.80;75.40;;;;;;9183582;19;20507;-67
2022/10/03 10:48:47;;;;;;;7.28;1.15;;;19.90;75.40;;;;;;9184912;19;20032;-67
2022/10/03 10:52:18;;;;;;;8.88;1.60;;;19.90;75.20;;;;;;9184847;19;20039;-66
2022/10/03 10:56:09;;;;;;;7.13;1.30;;;19.90;75.10;;;;;;9179435;19;20011;-64
2022/10/03 10:59:49;;;;;;;10.43;1.55;;;19.90;74.80;;;;;;9180708;19;20019;-66
2022/10/03 11:03:44;;;;;;;10.13;1.58;;;20.00;74.60;;;;;;9182417;19;20036;-65
2022/10/03 11:07:20;;;;;;;9.73;1.45;;;20.00;74.40;;;;;;9183609;19;20037;-65
2022/10/03 11:10:36;;;;;;;5.28;1.10;;;20.00;74.20;;;;;;9179686;19;20018;-65
2022/10/03 11:14:13;;;;;;;15.50;1.80;;;20.00;74.20;;;;;;9182665;19;20037;-66
2022/10/03 11:17:40;;;;;;;7.35;1.20;;;20.00;74.00;;;;;;9181753;19;20054;-66
2022/10/03 11:21:23;;;;;;;9.07;1.40;;;20.00;73.90;;;;;;9182225;19;20126;-65
2022/10/03 11:25:12;;;;;;;6.88;1.10;;;20.00;73.70;;;;;;9182871;19;20078;-65
2022/10/03 11:29:03;;;;;;;9.27;1.33;;;20.00;73.60;;;;;;9181977;19;20077;-64
2022/10/03 11:32:55;;;;;;;7.78;1.48;;;20.10;73.70;;;;;;9183128;19;20015;-65
2022/10/03 11:36:18;;;;;;;6.90;1.63;;;20.20;73.60;;;;;;9182537;19;20056;-64
2022/10/03 11:39:32;;;;;;;12.23;1.77;;;20.20;73.50;;;;;;9183024;19;20010;-65
2022/10/03 11:42:49;;;;;;;;;;;20.30;73.50;;;;;;9183876;19;20021;-62
2022/10/03 11:45:57;;;;;;;7.20;1.20;;;20.40;73.60;;;;;;9183435;19;19921;-63
2022/10/03 11:49:09;;;;;;;9.55;1.58;;;20.40;73.50;;;;;;9181444;19;20575;-65
2022/10/03 11:52:28;;;;;;;6.55;1.30;;;20.40;73.10;;;;;;9182791;19;20081;-63
2022/10/03 11:55:37;;;;;;;6.65;1.17;;;20.50;72.80;;;;;;9179384;19;20520;-66
2022/10/03 11:58:55;;;;;;;8.65;1.48;;;20.50;72.80;;;;;;9177419;19;20086;-63
2022/10/03 12:02:11;;;;;;;9.00;1.20;;;20.50;72.40;;;;;;9183291;19;20019;-69
2022/10/03 12:05:23;;;;;;;11.75;1.50;;;20.60;72.20;;;;;;9180254;19;20026;-65
2022/10/03 12:11:59;;;;;;;10.05;2.00;;;20.60;72.10;;;;;;9175485;19;20412;-65
2022/10/03 12:15:19;;;;;;;9.65;1.20;;;20.60;72.00;;;;;;9172699;19;20448;-62
2022/10/03 12:18:33;;;;;;;9.50;1.50;;;20.60;71.80;;;;;;9174633;19;20380;-65
2022/10/03 12:21:49;;;;;;;7.78;1.65;;;20.70;71.90;;;;;;9175210;19;20019;-61
2022/10/03 12:24:58;;;;;;;7.47;1.23;;;20.70;71.80;;;;;;9175547;19;20018;-63
2022/10/03 12:28:13;;;;;;;9.80;1.30;;;20.80;71.80;;;;;;9172982;19;20090;-63
2022/10/03 12:31:26;;;;;;;8.80;2.22;;;20.80;71.50;;;;;;9171763;19;20344;-65
2022/10/03 12:34:38;;;;;;;8.20;1.70;;;20.90;71.30;;;;;;9170330;19;20122;-64
2022/10/03 12:37:49;;;;;;;7.28;1.35;;;20.90;71.10;;;;;;9174901;19;20024;-63
2022/10/03 12:41:01;;;;;;;6.35;1.17;;;21.00;70.90;;;;;;9173974;19;20363;-64
2022/10/03 12:44:20;;;;;;;4.57;1.02;;;20.90;70.80;;;;;;9174387;19;20014;-66
2022/10/03 12:47:36;;;;;;;7.25;1.48;;;21.00;70.50;;;;;;9174783;19;20019;-63
2022/10/03 12:51:04;;;;;;;8.20;1.17;;;21.00;70.50;;;;;;9174315;19;20483;-64
2022/10/03 12:54:16;;;;;;;5.93;1.60;;;20.90;70.50;;;;;;9172607;19;20378;-63
2022/10/03 12:57:45;;;;;;;8.70;1.25;;;20.90;70.50;;;;;;9170053;19;20011;-66
2022/10/03 13:00:59;;;;;;;6.80;1.27;;;20.80;70.00;;;;;;9174160;19;20018;-63
2022/10/03 13:04:10;;;;;;;4.95;1.27;;;20.80;70.00;;;;;;9173821;19;20116;-65
2022/10/03 13:07:24;;;;;;;5.32;1.52;;;20.70;70.10;;;;;;9170762;19;20029;-65
2022/10/03 13:10:35;;;;;;;5.17;1.57;;;20.70;70.00;;;;;;9169062;19;20110;-63
2022/10/03 13:13:51;;;;;;;10.38;1.58;;;20.70;70.10;;;;;;9172678;19;20485;-63
2022/10/03 13:17:05;;;;;;;9.13;1.35;;;20.60;69.90;;;;;;9171067;19;20450;-63
2022/10/03 13:20:20;;;;;;;4.50;0.88;;;20.60;69.80;;;;;;9172234;19;20015;-63
2022/10/03 13:23:35;;;;;;;3.80;0.85;;;20.60;69.70;;;;;;9171890;19;20021;-63
2022/10/03 13:26:51;;;;;;;6.85;1.30;;;20.50;69.70;;;;;;9168076;19;20150;-63
2022/10/03 13:30:00;;;;;;;3.85;1.17;;;20.50;69.60;;;;;;9170630;19;20020;-65
2022/10/03 13:33:16;;;;;;;7.72;1.40;;;20.40;69.60;;;;;;9173448;19;20359;-63
2022/10/03 13:36:25;;;;;;;5.53;1.48;;;20.30;69.40;;;;;;9178731;19;20439;-63
2022/10/03 13:39:46;;;;;;;8.63;1.20;;;20.20;69.30;;;;;;9175050;19;20519;-64
2022/10/03 13:42:52;;;;;;;4.90;0.70;;;20.20;69.20;;;;;;9177319;19;20039;-63
2022/10/03 13:45:57;;;;;;;3.55;0.75;;;20.20;69.50;;;;;;9179654;19;20015;-65
2022/10/03 13:49:09;;;;;;;4.10;0.88;;;20.20;69.50;;;;;;9178455;19;20533;-64
2022/10/03 13:52:22;;;;;;;5.65;1.35;;;20.10;69.40;;;;;;9175793;19;20385;-63
2022/10/03 13:55:43;;;;;;;7.72;1.90;;;20.10;69.30;;;;;;9174319;19;20516;-65
2022/10/03 13:58:57;;;;;;;5.70;1.50;;;20.00;69.10;;;;;;9172118;19;20365;-63
2022/10/03 14:02:11;;;;;;;6.80;1.30;;;20.00;69.20;;;;;;9178038;19;20029;-63
2022/10/03 14:05:37;;;;;;;7.93;1.30;;;20.00;69.20;;;;;;9177400;19;20014;-63
2022/10/03 14:09:17;;;;;;;6.82;1.02;;;20.00;69.00;;;;;;9175602;19;20348;-62
2022/10/03 14:12:32;;;;;;;5.78;1.48;;;19.90;69.00;;;;;;9177186;19;20023;-64
2022/10/03 14:16:04;;;;;;;9.10;1.65;;;19.90;69.10;;;;;;9177607;19;20030;-63
2022/10/03 14:19:18;;;;;;;6.18;1.13;;;19.90;69.30;;;;;;9177397;19;20022;-63
2022/10/03 14:22:47;;;;;;;8.18;1.30;;;19.90;69.20;;;;;;9173834;19;20078;-63
2022/10/03 14:26:01;;;;;;;6.15;1.25;;;19.80;69.10;;;;;;9176329;19;20472;-62
2022/10/03 14:29:09;;;;;;;7.10;1.10;;;19.80;69.20;;;;;;9176385;19;20459;-62
2022/10/03 14:32:22;;;;;;;3.53;1.00;;;19.70;69.30;;;;;;9177074;19;20029;-64
2022/10/03 14:36:01;;;;;;;7.00;1.58;;;19.70;69.20;;;;;;9175506;19;20019;-65
2022/10/03 14:39:27;;;;;;;9.15;1.20;;;19.60;69.20;;;;;;9176434;19;20026;-62
2022/10/03 14:42:50;;;;;;;9.98;1.17;;;19.60;69.20;;;;;;9178074;19;20017;-64
2022/10/03 14:45:56;;;;;;;8.23;1.20;;;19.50;69.20;;;;;;9176323;19;20367;-62
2022/10/03 14:49:06;;;;;;;8.10;1.40;;;19.50;69.40;;;;;;9178203;19;20026;-63
2022/10/03 14:52:35;;;;;;;11.77;1.75;;;19.40;69.30;;;;;;9177335;19;20377;-63
2022/10/03 14:55:47;;;;;;;6.68;1.55;;;19.40;69.40;;;;;;9168711;19;20014;-63
2022/10/03 14:58:54;;;;;;;7.88;1.95;;;19.30;69.40;;;;;;9167031;19;20031;-65
2022/10/03 15:01:59;;;;;;;7.10;1.40;;;19.20;69.40;;;;;;9170950;19;20026;-63
2022/10/03 15:05:09;;;;;;;9.25;1.98;;;19.20;69.50;;;;;;9173593;19;20018;-63
2022/10/03 15:08:18;;;;;;;5.00;2.50;;;19.20;69.40;;;;;;9170684;19;20348;-62
2022/10/03 15:11:27;;;;;;;11.68;2.38;;;19.20;69.60;;;;;;9173154;19;20033;-61
2022/10/03 15:14:37;;;;;;;7.97;1.48;;;19.10;69.50;;;;;;9173626;19;20359;-62
2022/10/03 15:17:47;;;;;;;6.47;1.10;;;19.10;69.50;;;;;;9173076;19;20026;-62
2022/10/03 15:20:55;;;;;;;7.05;2.05;;;19.10;69.50;;;;;;9165620;19;20011;-63
2022/10/03 15:24:03;;;;;;;6.28;1.55;;;19.00;69.50;;;;;;9168266;19;20087;-66
2022/10/03 15:27:13;;;;;;;7.05;1.42;;;19.00;69.50;;;;;;9172806;19;20049;-64
2022/10/03 15:30:24;;;;;;;6.47;1.42;;;18.90;69.50;;;;;;9171643;19;20487;-64
2022/10/03 15:33:36;;;;;;;8.45;1.98;;;18.90;69.50;;;;;;9168666;19;20021;-64
2022/10/03 15:36:44;;;;;;;9.82;1.38;;;18.90;69.70;;;;;;9168306;19;20483;-64
2022/10/03 15:39:51;;;;;;;9.98;2.53;;;18.80;69.70;;;;;;9171781;19;20052;-62
2022/10/03 15:43:06;;;;;;;9.30;1.80;;;18.80;69.70;;;;;;9167522;19;20043;-62
2022/10/03 15:46:23;;;;;;;6.88;1.30;;;18.80;69.70;;;;;;9168853;19;20018;-63
2022/10/03 15:49:30;;;;;;;10.48;1.92;;;18.70;69.70;;;;;;9167758;19;20515;-63
2022/10/03 15:52:40;;;;;;;13.45;1.70;;;18.70;69.90;;;;;;9168088;19;20546;-64
2022/10/03 15:55:49;;;;;;;13.50;4.22;;;18.70;69.90;;;;;;9171799;19;20047;-61
2022/10/03 15:58:55;;;;;;;15.98;2.92;;;18.70;69.90;;;;;;9169729;19;20025;-64
2022/10/03 16:02:06;;;;;;;11.27;3.13;;;18.60;70.00;;;;;;9175445;19;20526;-60
2022/10/03 16:05:20;;;;;;;7.55;2.17;;;18.60;70.00;;;;;;9175466;19;20015;-63
2022/10/03 16:08:30;;;;;;;13.32;2.30;;;18.60;70.10;;;;;;9171936;19;20014;-61
2022/10/03 16:11:44;;;;;;;7.40;1.90;;;18.60;70.20;;;;;;9175466;19;20047;-64
2022/10/03 16:14:52;;;;;;;4.78;1.25;;;18.50;70.10;;;;;;9172698;19;20022;-63
2022/10/03 16:18:02;;;;;;;8.57;2.03;;;18.50;70.20;;;;;;9174662;19;20049;-64
2022/10/03 16:21:07;;;;;;;3.17;1.23;;;18.50;70.20;;;;;;9174707;19;20011;-62
2022/10/03 16:24:23;;;;;;;8.18;1.48;;;18.40;70.20;;;;;;9174551;19;20056;-63
2022/10/03 16:27:30;;;;;;;8.63;1.58;;;18.40;70.20;;;;;;9173582;19;20399;-65
2022/10/03 16:30:39;;;;;;;9.15;1.75;;;18.30;70.20;;;;;;9173607;19;20106;-64
2022/10/03 16:33:52;;;;;;;9.70;1.63;;;18.30;70.20;;;;;;9173088;19;20019;-63
2022/10/03 16:37:01;;;;;;;8.50;1.83;;;18.20;70.30;;;;;;9173778;19;20017;-64
2022/10/03 16:40:08;;;;;;;8.27;1.40;;;18.20;70.30;;;;;;9172413;19;20022;-65
2022/10/03 16:43:19;;;;;;;9.48;2.40;;;18.20;70.30;;;;;;9173966;19;20033;-60
2022/10/03 16:46:24;;;;;;;10.55;1.38;;;18.10;70.20;;;;;;9177857;19;20014;-61
2022/10/03 16:53:00;;;;;;;6.72;1.65;;;18.10;70.30;;;;;;9177907;19;20594;-63
2022/10/03 16:56:07;;;;;;;4.88;1.55;;;18.00;70.30;;;;;;9174847;19;20019;-61
2022/10/03 16:59:14;;;;;;;6.35;1.33;;;18.00;70.40;;;;;;9174478;19;20094;-63
2022/10/03 17:02:21;;;;;;;9.32;1.55;;;17.90;70.40;;;;;;9177844;19;20018;-65
2022/10/03 17:05:28;;;;;;;5.93;1.63;;;17.90;70.50;;;;;;9174838;19;20095;-62
2022/10/03 17:08:35;;;;;;;9.15;1.63;;;17.80;70.50;;;;;;9166218;19;20554;-62
2022/10/03 17:11:51;;;;;;;8.60;1.83;;;17.70;70.50;;;;;;9175293;19;20018;-62
2022/10/03 17:14:58;;;;;;;8.45;1.42;;;17.70;70.70;;;;;;9172648;19;20576;-61
2022/10/03 17:18:15;;;;;;;9.18;1.65;;;17.60;70.70;;;;;;9171135;19;20045;-61
2022/10/03 17:21:25;;;;;;;6.45;1.67;;;17.50;70.70;;;;;;9175900;19;20027;-62
2022/10/03 17:24:38;;;;;;;6.43;1.30;;;17.50;70.80;;;;;;9175148;19;20015;-63
2022/10/03 17:27:43;;;;;;;10.80;1.55;;;17.40;70.90;;;;;;9174426;19;20047;-62
2022/10/03 17:30:50;;;;;;;7.00;1.33;;;17.30;71.00;;;;;;9174630;19;20043;-62
2022/10/03 17:33:56;;;;;;;7.18;1.88;;;17.20;71.00;;;;;;9175678;19;20017;-62
2022/10/03 17:37:27;;;;;;;7.25;2.00;;;17.10;71.10;;;;;;9176217;19;20082;-63
2022/10/03 17:40:50;;;;;;;12.20;2.17;;;17.10;71.20;;;;;;9171218;19;20014;-62
2022/10/03 17:44:16;;;;;;;4.78;1.60;;;17.00;71.20;;;;;;9171170;19;20640;-64